x

South Hatteras - 225 South Of Cape Hatteras (41002) Wave Buoy

12:50 - Fri 29th Jul 2016 All times are EDT. -4 hours from GMT.

  • Sig Wave height 3.6ft
  • Swell Direction
  • Peak Period 7s
  • Average Period 5s
  • Wind
    9mph, 11mph gusts
  • Sea Temp 84°f
  • Luft Temp 84°f
  • Sea Pressure 1015.8mb
  • South Hatteras - 225 South Of Cape Hatteras
  • South Hatteras - 225 South Of Cape Hatteras

More Historic Weather Station data

Upgrade to MSW Pro to gain access to the past 30 days of data for over 8000 Wavebouys and Weather Stations around the globe.

Join Pro

Comparision Forecast

View Surf forecast
   
Fr 07/29 12:50 3.5ft 7s 5s 9 11 mph 1015.8mb 84f 84f
Do 07/28 11:50 3.5ft 6s 5s 11 13 mph 1015.9mb 84f 84f
10:50 3.5ft 6s 5s 11 13 mph 1015.7mb 85f 84f
9:50 3.5ft 6s 5s 11 13 mph 1015.8mb 85f 84f
8:50 3.5ft 6s 5s 9 11 mph 1015.3mb 85f 84f
7:50 3.5ft 6s 5s 7 11 mph 1015.1mb 85f 84f
6:50 3.5ft 6s 5s 11 13 mph 1015.3mb 85f 84f
5:50 3.5ft 6s 5s 13
mph
1015.1mb 85f 84f
4:50 3ft 6s 5s 9 11 mph 1015.1mb 85f 84f
3:50 3.5ft 6s 5s 9 11 mph 1015.3mb 85f 83f
2:50 3.5ft 6s 5s 9 11 mph 1015.7mb 85f 84f
1:50 3.5ft 6s 5s 16 18 mph 1016mb 85f 82f
12:50 3.5ft 6s 5s 18 20 mph 1016.5mb 85f 82f
11:50 3.5ft 6s 5s 9 11 mph 1016.7mb 85f 83f
10:50 3.5ft 5s 5s 9 18 mph 1016.9mb 85f 84f
9:50 3.5ft 5s 4s 9 11 mph 1017.1mb 84f 84f
8:50 3ft 6s 4s 9 11 mph 1017.2mb 84f 84f
7:50 3ft 6s 4s 13 16 mph 1017.1mb 84f 84f
6:50 3ft 6s 4s 16 20 mph 1016.3mb 84f 84f
5:50 3ft 6s 4s 16 18 mph 1015.7mb 84f 84f
4:50 3ft 6s 5s 13 16 mph 1015.1mb 84f 84f
3:50 3ft 5s 5s 13 16 mph 1015.3mb 85f 84f
2:50 3ft 6s 5s 13 16 mph 1015.8mb 85f 84f
1:50 3ft 6s 5s 13
mph
1016.1mb 85f 84f
12:50 3.5ft 6s 5s 13 16 mph 1016.5mb 85f 84f
Mi 07/27 11:50 3.5ft 6s 5s 13
mph
1016.8mb 85f 84f
10:50 3.5ft 6s 5s 13 16 mph 1016.5mb 85f 84f
9:50 3.5ft 6s 5s 11 13 mph 1016.4mb 85f 84f
8:50 3.5ft 6s 5s 13 16 mph 1016.1mb 85f 84f
7:50 3.5ft 6s 5s 13 16 mph 1016.2mb 85f 83f
6:50 3.5ft 6s 5s 11 13 mph 1016.1mb 85f 85f
5:50 3.5ft 6s 5s 9 11 mph 1016.3mb 85f 85f
4:50 3.5ft 6s 5s 11 13 mph 1016.5mb 85f 85f
3:50 4ft 6s 5s 11 13 mph 1016.8mb 85f 85f
2:50 4ft 6s 5s 11 13 mph 1017.3mb 85f 85f
1:50 3.5ft 6s 5s 13
mph
1017.8mb 85f 85f
12:50 4ft 5s 5s 13 16 mph 1017.8mb 85f 85f
11:50 3.5ft 5s 5s 13 18 mph 1017.7mb 84f 85f
10:50 3.5ft 5s 4s 13 18 mph 1017.4mb 84f 85f
9:50 3.5ft 5s 4s 13 16 mph 1017.6mb 84f 84f
7:50 3.5ft 5s 4s 16 20 mph 1017.5mb 84f 84f
6:50 3ft 4s 4s 16 18 mph 1017.5mb 84f 84f
5:50 3ft 5s 4s 13 16 mph 1017.6mb 84f 83f
4:50 2.5ft 8s 4s 16 18 mph 1017.2mb 84f 84f
3:50 2.5ft 4s 4s 16 18 mph 1017mb 84f 84f
2:50 2.5ft 8s 4s 13 18 mph 1017.2mb 84f 84f
1:50 2.5ft 7s 4s 16 18 mph 1017.4mb 84f 84f
12:50 2.5ft 7s 4s 13 18 mph 1017.7mb 84f 84f
Di 07/26 11:50 2.5ft 7s 4s 13 16 mph 1017.8mb 84f 84f
10:50 2.5ft 7s 5s 11 13 mph 1018mb 84f 84f
9:50 2.5ft 7s 4s 11
mph
1017.9mb 84f 84f
8:50 2.5ft 8s 4s 11 13 mph 1017.5mb 85f 84f
7:50 2.5ft 5s 4s 11 13 mph 1017.1mb 84f 84f
6:50 2.5ft 7s 4s 9 11 mph 1017.1mb 85f 84f
5:50 2.5ft 7s 4s 9 11 mph 1017.5mb 85f 85f
4:50 2.5ft 4s 4s 9 11 mph 1017.8mb 85f 84f
3:50 2.5ft 8s 4s 11
mph
1018mb 85f 85f
2:50 2.5ft 4s 4s 13
mph
1018.3mb 85f 84f
1:50 2.5ft 5s 4s 11 13 mph 1018.7mb 84f 84f
12:50 2.5ft 4s 4s 11 13 mph 1019mb 84f 84f
11:50 2.5ft 4s 4s 13 16 mph 1019.2mb 84f 83f
10:50 2.5ft 4s 4s 11 13 mph 1019mb 84f 84f
9:50 2ft 8s 4s 4 16 mph 1019.1mb 84f 82f
8:50 2ft 8s 4s 13 16 mph 1019.2mb 84f 84f
7:50 2.5ft 8s 4s 13
mph
1018.8mb 84f 83f
6:50 2ft 8s 4s 11 13 mph 1018.8mb 84f 83f
5:50 2ft 8s 5s 13 16 mph 1018.2mb 84f 82f
4:50 2ft 8s 5s 9 11 mph 1018.2mb 84f 83f
3:50 2ft 8s 5s 7
mph
1018.4mb 84f 83f
2:50 2ft 8s 5s 7 9 mph 1018.8mb 84f 83f
1:50 1.6ft 8s 5s 11
mph
1019.2mb 84f 82f
12:50 2ft 8s 4s 7 9 mph 1019.3mb 84f 83f
Mo 07/25 11:50 2ft 8s 4s 7 9 mph 1019.5mb 84f 83f
10:50 2ft 9s 5s 11 16 mph 1019.2mb 85f 84f
9:50 2ft 8s 4s 11 13 mph 1018.9mb 85f 84f
8:50 2ft 8s 4s 13 16 mph 1018.4mb 85f 84f
7:50 2ft 8s 4s 11 13 mph 1018.3mb 85f 84f
6:50 2ft 8s 5s 13 16 mph 1018.2mb 85f 84f
5:50 2ft 8s 5s 11 13 mph 1018.2mb 85f 84f
4:50 2ft 8s 5s 9 11 mph 1018.6mb 85f 84f
3:50 2ft 8s 5s 9 11 mph 1019.3mb 85f 83f
2:50 2ft 8s 5s 9 11 mph 1019.7mb 85f 83f
1:50 2ft 8s 5s 11 13 mph 1020.1mb 85f 83f
12:50 2ft 8s 5s 13 18 mph 1020.3mb 85f 82f
11:50 2ft 8s 6s 4 7 mph 1020.2mb 85f 83f
10:50 2ft 8s 5s 4 7 mph 1020.4mb 85f 83f
9:50 2ft 8s 5s 4 7 mph 1020.2mb 84f 83f
8:50 2ft 9s 5s 9 11 mph 1020.2mb 84f 83f
7:50 2.5ft 9s 6s 9 11 mph 1019.9mb 84f 84f
6:50 2ft 8s 6s 11 13 mph 1019.4mb 84f 83f